Spring Creek, North Carolina
Current Conditions -  °F | °C
As of 10:54 PM on Wednesday 22 Oct 2014 (Local Time) from KAVL Reporting Station
Clear Clear  
Wind Chill: 40°   Ceiling: Unl
Heat Index: 46°   Visibility: 10mi
Dew Point: 36°   Wind: 13mph
Humidity: 68%   Direction: 340°NNW
Pressure: 30.16"   Gusts: NA
Location:  35.8037°N, 82.868°W
Report Text: KAVL 230254Z 34011KT 10SM CLR 08/02 A3016 RMK AO2 SLP210 T00780022 53004
Loading
Personal Weather Stations






























Interactive Weather Map
Tropical Storm Tracking
New forecast layout! Learn more

10-Day Weather Forecast

Advertisements
Track Severe Weather on mobile